createdAt,value
2019-01-16T00:00:20.666Z,32.21
2019-01-16T00:01:20.632Z,32.78
2019-01-16T00:02:20.600Z,33.92
2019-01-16T00:03:20.568Z,33.92
2019-01-16T00:04:20.538Z,33.07
2019-01-16T00:05:20.501Z,33.36
2019-01-16T00:06:20.471Z,35.35
2019-01-16T00:07:20.437Z,35.54
2019-01-16T00:08:20.404Z,37.15
2019-01-16T00:09:20.372Z,36.77
2019-01-16T00:10:20.340Z,36.49
2019-01-16T00:11:20.307Z,36.30
2019-01-16T00:12:20.276Z,36.96
2019-01-16T00:13:20.241Z,39.34
2019-01-16T00:14:20.210Z,39.34
2019-01-16T00:15:20.177Z,39.25
2019-01-16T00:16:20.144Z,39.62
2019-01-16T00:17:20.111Z,38.77
2019-01-16T00:18:20.079Z,40.01
2019-01-16T00:19:20.047Z,39.25
2019-01-16T00:20:20.016Z,39.62
2019-01-16T00:21:19.982Z,38.87
2019-01-16T00:22:19.953Z,38.39
2019-01-16T00:23:19.917Z,38.68
2019-01-16T00:24:19.885Z,38.77
2019-01-16T00:25:19.852Z,39.43
2019-01-16T00:26:19.819Z,41.81
2019-01-16T00:27:19.789Z,42.29
2019-01-16T00:28:19.758Z,42.00
2019-01-16T00:29:19.722Z,42.29
2019-01-16T00:30:19.688Z,44.00
2019-01-16T00:31:19.657Z,42.76
2019-01-16T00:32:19.627Z,44.57
2019-01-16T00:33:19.593Z,44.85
2019-01-16T00:34:19.561Z,46.85
2019-01-16T00:35:19.527Z,47.80
2019-01-16T00:36:19.496Z,50.65
2019-01-16T00:37:19.462Z,50.18
2019-01-16T00:38:19.434Z,50.27
2019-01-16T00:39:19.399Z,50.18
2019-01-16T00:40:19.417Z,51.79
2019-01-16T00:41:19.332Z,53.12
2019-01-16T00:42:19.301Z,55.59
2019-01-16T00:43:19.270Z,55.15
2019-01-16T00:44:19.236Z,57.33
2019-01-16T00:45:19.204Z,56.48
2019-01-16T00:46:19.172Z,59.99
2019-01-16T00:47:19.139Z,58.37
2019-01-16T00:48:24.514Z,57.62
2019-01-16T00:49:19.078Z,58.28
2019-01-16T00:50:19.042Z,56.76
2019-01-16T00:51:19.010Z,59.80
2019-01-16T00:52:18.981Z,61.77
2019-01-16T00:53:18.944Z,63.32
2019-01-16T00:54:18.912Z,63.13
2019-01-16T00:55:18.880Z,61.61
2019-01-16T00:56:18.849Z,62.37
2019-01-16T00:57:18.816Z,61.52
2019-01-16T00:58:18.784Z,61.13
2019-01-16T00:59:18.784Z,62.37
2019-01-16T01:00:18.719Z,62.24
2019-01-16T01:01:18.687Z,60.44
2019-01-16T01:02:18.654Z,62.94
2019-01-16T01:03:18.621Z,62.81
2019-01-16T01:04:18.589Z,65.70
2019-01-16T01:05:18.569Z,65.03
2019-01-16T01:06:18.531Z,65.32
2019-01-16T01:07:18.492Z,65.70
2019-01-16T01:08:18.460Z,67.88
2019-01-16T01:09:18.427Z,67.03
2019-01-16T01:10:18.397Z,68.17
2019-01-16T01:11:18.363Z,69.02
2019-01-16T01:12:18.335Z,71.12
2019-01-16T01:13:18.299Z,72.07
2019-01-16T01:14:18.266Z,72.26
2019-01-16T01:15:18.234Z,71.02
2019-01-16T01:16:18.201Z,68.93
2019-01-16T01:17:18.170Z,72.64
2019-01-16T01:18:18.137Z,69.69
2019-01-16T01:19:18.105Z,73.49
2019-01-16T01:20:18.074Z,70.17
2019-01-16T01:21:18.039Z,70.93
2019-01-16T01:22:18.008Z,71.22
2019-01-16T01:23:17.977Z,70.07
2019-01-16T01:24:17.944Z,74.35
2019-01-16T01:25:17.911Z,72.92
2019-01-16T01:26:17.879Z,73.69
2019-01-16T01:27:17.848Z,70.93
2019-01-16T01:28:17.815Z,70.17
2019-01-16T01:29:17.781Z,70.54
2019-01-16T01:30:17.786Z,72.92
2019-01-16T01:31:17.717Z,71.22
2019-01-16T01:32:17.685Z,73.11
2019-01-16T01:33:17.652Z,75.30
2019-01-16T01:34:17.622Z,73.30
2019-01-16T01:35:17.589Z,75.96
2019-01-16T01:36:17.558Z,72.92
2019-01-16T01:37:17.524Z,73.02
2019-01-16T01:38:17.492Z,71.97
2019-01-16T01:39:17.462Z,73.40
2019-01-16T01:40:17.426Z,72.26
2019-01-16T01:41:17.395Z,75.21
2019-01-16T01:42:17.511Z,74.44
2019-01-16T01:43:17.331Z,74.73
2019-01-16T01:44:17.298Z,75.87
2019-01-16T01:45:17.267Z,76.25
2019-01-16T01:46:17.233Z,75.49
2019-01-16T01:47:17.201Z,74.73
2019-01-16T01:48:17.170Z,76.82
2019-01-16T01:49:17.137Z,77.39
2019-01-16T01:50:17.103Z,75.49
2019-01-16T01:51:17.072Z,76.12
2019-01-16T01:52:17.039Z,74.82
2019-01-16T01:53:17.007Z,75.93
2019-01-16T01:54:16.975Z,78.50
2019-01-16T01:55:16.942Z,75.26
2019-01-16T01:56:16.911Z,78.34
2019-01-16T01:57:16.877Z,82.24
2019-01-16T01:58:16.848Z,81.67
2019-01-16T01:59:16.814Z,79.20
2019-01-16T02:00:16.781Z,79.11
2019-01-16T02:01:16.761Z,79.63
2019-01-16T02:02:16.717Z,78.97
2019-01-16T02:03:16.684Z,79.86
2019-01-16T02:04:16.653Z,80.02
2019-01-16T02:05:16.620Z,81.63
2019-01-16T02:06:16.588Z,81.48
2019-01-16T02:07:16.556Z,83.82
2019-01-16T02:08:16.524Z,81.96
2019-01-16T02:09:16.489Z,84.58
2019-01-16T02:10:16.458Z,83.91
2019-01-16T02:11:16.428Z,85.72
2019-01-16T02:12:16.394Z,88.80
2019-01-16T02:13:16.360Z,87.19
2019-01-16T02:14:16.328Z,86.43
2019-01-16T02:15:16.298Z,88.04
2019-01-16T02:16:16.264Z,85.57
2019-01-16T02:17:16.231Z,86.05
2019-01-16T02:18:16.200Z,90.42
2019-01-16T02:19:16.168Z,89.75
2019-01-16T02:20:16.136Z,89.56
2019-01-16T02:21:16.104Z,90.14
2019-01-16T02:22:16.070Z,91.56
2019-01-16T02:23:16.037Z,88.13
2019-01-16T02:24:16.006Z,88.33
2019-01-16T02:25:15.973Z,88.42
2019-01-16T02:26:15.941Z,90.80
2019-01-16T02:27:15.910Z,88.33
2019-01-16T02:28:15.877Z,86.90
2019-01-16T02:29:15.843Z,91.75
2019-01-16T02:30:15.822Z,90.61
2019-01-16T02:31:15.778Z,89.09
2019-01-16T02:32:15.749Z,88.33
2019-01-16T02:33:15.713Z,89.56
2019-01-16T02:34:15.682Z,91.56
2019-01-16T02:35:15.651Z,91.42
2019-01-16T02:36:15.618Z,89.66
2019-01-16T02:37:15.588Z,90.33
2019-01-16T02:38:15.553Z,89.00
2019-01-16T02:39:15.519Z,89.52
2019-01-16T02:40:15.495Z,86.71
2019-01-16T02:41:15.459Z,89.28
2019-01-16T02:42:15.474Z,89.66
2019-01-16T02:43:15.391Z,88.23
2019-01-16T02:44:15.359Z,88.38
2019-01-16T02:45:15.328Z,89.90
2019-01-16T02:46:15.294Z,88.04
2019-01-16T02:47:15.262Z,87.47
2019-01-16T02:48:15.229Z,88.28
2019-01-16T02:49:15.198Z,87.52
2019-01-16T02:50:15.164Z,88.19
2019-01-16T02:51:15.134Z,88.95
2019-01-16T02:52:15.101Z,89.04
2019-01-16T02:53:15.073Z,90.28
2019-01-16T02:54:15.039Z,90.09
2019-01-16T02:55:15.004Z,90.75
2019-01-16T02:56:14.971Z,90.75
2019-01-16T02:57:14.939Z,92.32
2019-01-16T02:58:14.908Z,89.00
2019-01-16T02:59:14.875Z,89.75
2019-01-16T03:00:15.148Z,87.52
2019-01-16T03:01:14.809Z,90.23
2019-01-16T03:02:14.789Z,91.23
2019-01-16T03:03:14.747Z,90.61
2019-01-16T03:04:14.715Z,89.90
2019-01-16T03:05:14.680Z,89.52
2019-01-16T03:06:14.648Z,94.84
2019-01-16T03:07:14.616Z,92.99
2019-01-16T03:08:14.586Z,92.51
2019-01-16T03:09:14.552Z,92.27
2019-01-16T03:10:14.518Z,95.46
2019-01-16T03:11:14.487Z,92.85
2019-01-16T03:12:14.455Z,96.60
2019-01-16T03:13:14.424Z,96.55
2019-01-16T03:14:14.392Z,99.07
2019-01-16T03:15:14.367Z,97.64
2019-01-16T03:16:14.325Z,96.12
2019-01-16T03:17:14.295Z,94.89
2019-01-16T03:18:14.265Z,97.03
2019-01-16T03:19:14.228Z,96.08
2019-01-16T03:20:14.208Z,98.45
2019-01-16T03:21:14.165Z,99.99
2019-01-16T03:22:14.133Z,99.07
2019-01-16T03:23:14.100Z,97.27
2019-01-16T03:24:14.068Z,96.98
2019-01-16T03:25:14.034Z,97.50
2019-01-16T03:26:14.002Z,97.50
2019-01-16T03:27:13.969Z,95.70
2019-01-16T03:28:13.940Z,96.08
2019-01-16T03:29:13.903Z,96.08
2019-01-16T03:30:13.875Z,95.03
2019-01-16T03:31:13.850Z,95.98
2019-01-16T03:32:13.815Z,95.70
2019-01-16T03:33:13.777Z,95.84
2019-01-16T03:34:13.743Z,94.56
2019-01-16T03:35:13.711Z,93.04
2019-01-16T03:36:13.680Z,93.51
2019-01-16T03:37:13.647Z,93.13
2019-01-16T03:38:13.614Z,93.79
2019-01-16T03:39:13.583Z,92.66
2019-01-16T03:40:13.551Z,94.93
2019-01-16T03:41:13.518Z,92.37
2019-01-16T03:42:13.484Z,94.56
2019-01-16T03:43:13.453Z,94.65
2019-01-16T03:44:13.421Z,93.89
2019-01-16T03:45:13.388Z,99.02
2019-01-16T03:46:13.356Z,96.93
2019-01-16T03:47:13.323Z,96.93
2019-01-16T03:48:13.291Z,97.97
2019-01-16T03:49:14.020Z,95.98
2019-01-16T03:50:13.230Z,97.12
2019-01-16T03:51:13.195Z,97.22
2019-01-16T03:52:13.162Z,96.45
2019-01-16T03:53:13.129Z,98.45
2019-01-16T03:54:13.097Z,98.07
2019-01-16T03:55:13.067Z,97.31
2019-01-16T03:56:13.032Z,96.84
2019-01-16T03:57:13.000Z,96.74
2019-01-16T03:58:12.968Z,97.22
2019-01-16T03:59:12.935Z,96.36
2019-01-16T04:00:12.906Z,99.02
2019-01-16T04:01:12.871Z,97.31
2019-01-16T04:02:12.839Z,95.79
2019-01-16T04:03:12.807Z,94.65
2019-01-16T04:04:12.785Z,99.02
2019-01-16T04:05:12.740Z,99.11
2019-01-16T04:06:12.712Z,97.97
2019-01-16T04:07:12.678Z,96.93
2019-01-16T04:08:12.648Z,95.12
2019-01-16T04:09:12.613Z,95.03
2019-01-16T04:10:12.581Z,96.45
2019-01-16T04:11:12.547Z,96.84
2019-01-16T04:12:12.516Z,95.98
2019-01-16T04:13:12.485Z,98.93
2019-01-16T04:14:12.455Z,96.26
2019-01-16T04:15:12.416Z,97.78
2019-01-16T04:16:12.386Z,96.65
2019-01-16T04:17:12.353Z,99.02
2019-01-16T04:18:12.323Z,96.74
2019-01-16T04:19:12.289Z,95.60
2019-01-16T04:20:12.255Z,95.79
2019-01-16T04:21:12.223Z,98.17
2019-01-16T04:22:12.196Z,98.07
2019-01-16T04:23:12.158Z,97.22
2019-01-16T04:24:12.126Z,97.31
2019-01-16T04:25:12.092Z,99.02
2019-01-16T04:26:12.059Z,97.60
2019-01-16T04:27:12.031Z,99.99
2019-01-16T04:28:11.997Z,99.02
2019-01-16T04:29:11.968Z,98.36
2019-01-16T04:30:11.931Z,96.26
2019-01-16T04:31:11.903Z,98.74
2019-01-16T04:32:11.868Z,99.99
2019-01-16T04:33:11.835Z,99.02
2019-01-16T04:34:11.801Z,99.99
2019-01-16T04:35:11.771Z,99.88
2019-01-16T04:36:11.737Z,99.99
2019-01-16T04:37:11.705Z,99.88
2019-01-16T04:38:11.675Z,99.30
2019-01-16T04:39:11.640Z,99.50
2019-01-16T04:40:11.608Z,97.78
2019-01-16T04:41:11.575Z,98.83
2019-01-16T04:42:11.542Z,98.64
2019-01-16T04:43:11.510Z,97.22
2019-01-16T04:44:11.478Z,97.78
2019-01-16T04:45:11.444Z,98.17
2019-01-16T04:46:11.412Z,96.65
2019-01-16T04:47:11.379Z,95.60
2019-01-16T04:48:11.349Z,96.36
2019-01-16T04:49:11.314Z,93.51
2019-01-16T04:50:11.289Z,94.46
2019-01-16T04:51:11.250Z,92.56
2019-01-16T04:52:11.217Z,91.42
2019-01-16T04:53:11.184Z,93.32
2019-01-16T04:54:11.155Z,92.56
2019-01-16T04:55:11.119Z,90.75
2019-01-16T04:56:11.095Z,91.99
2019-01-16T04:57:11.057Z,91.04
2019-01-16T04:58:11.023Z,89.04
2019-01-16T04:59:10.990Z,91.99
2019-01-16T05:00:10.960Z,90.09
2019-01-16T05:01:10.925Z,93.13
2019-01-16T05:02:10.898Z,93.60
2019-01-16T05:03:10.862Z,92.94
2019-01-16T05:04:10.827Z,93.41
2019-01-16T05:05:10.796Z,91.89
2019-01-16T05:06:10.763Z,93.13
2019-01-16T05:07:10.730Z,93.04
2019-01-16T05:08:10.698Z,92.37
2019-01-16T05:09:10.664Z,91.61
2019-01-16T05:10:10.632Z,92.56
2019-01-16T05:11:10.599Z,91.52
2019-01-16T05:12:10.569Z,94.18
2019-01-16T05:13:10.534Z,91.80
2019-01-16T05:14:10.502Z,92.85
2019-01-16T05:15:10.469Z,92.32
2019-01-16T05:16:10.437Z,90.85
2019-01-16T05:17:10.404Z,90.66
2019-01-16T05:18:10.370Z,91.71
2019-01-16T05:19:10.341Z,94.08
2019-01-16T05:20:10.307Z,93.99
2019-01-16T05:21:10.274Z,94.37
2019-01-16T05:22:10.241Z,95.89
2019-01-16T05:23:10.210Z,94.46
2019-01-16T05:24:10.180Z,96.26
2019-01-16T05:25:10.143Z,94.56
2019-01-16T05:26:10.112Z,95.12
2019-01-16T05:27:10.079Z,95.12
2019-01-16T05:28:10.048Z,94.27
2019-01-16T05:29:10.014Z,95.03
2019-01-16T05:30:09.980Z,94.65
2019-01-16T05:31:09.948Z,94.08
2019-01-16T05:32:09.916Z,93.04
2019-01-16T05:33:09.882Z,93.32
2019-01-16T05:34:09.850Z,92.71
2019-01-16T05:35:09.825Z,92.56
2019-01-16T05:36:09.786Z,91.04
2019-01-16T05:37:09.752Z,91.47
2019-01-16T05:38:09.720Z,90.56
2019-01-16T05:39:09.687Z,90.47
2019-01-16T05:40:09.654Z,89.04
2019-01-16T05:41:09.623Z,90.75
2019-01-16T05:42:09.593Z,89.57
2019-01-16T05:43:09.557Z,88.19
2019-01-16T05:44:09.525Z,86.63
2019-01-16T05:45:09.491Z,87.57
2019-01-16T05:46:09.460Z,89.28
2019-01-16T05:47:09.430Z,87.76
2019-01-16T05:48:09.394Z,88.15
2019-01-16T05:49:09.362Z,88.24
2019-01-16T05:50:09.329Z,88.05
2019-01-16T05:51:09.296Z,87.38
2019-01-16T05:52:09.268Z,87.67
2019-01-16T05:53:09.230Z,87.76
2019-01-16T05:54:09.198Z,88.05
2019-01-16T05:55:09.165Z,89.38
2019-01-16T05:56:09.134Z,89.95
2019-01-16T05:57:09.099Z,88.09
2019-01-16T05:58:09.072Z,89.19
2019-01-16T05:59:09.035Z,87.01
2019-01-16T06:00:09.002Z,85.58
2019-01-16T06:01:08.970Z,87.01
2019-01-16T06:02:08.939Z,84.34
2019-01-16T06:03:08.905Z,82.26
2019-01-16T06:04:08.874Z,81.78
2019-01-16T06:05:08.840Z,79.69
2019-01-16T06:06:08.807Z,76.84
2019-01-16T06:07:08.774Z,75.60
2019-01-16T06:08:08.745Z,73.99
2019-01-16T06:09:08.710Z,73.80
2019-01-16T06:10:08.676Z,71.71
2019-01-16T06:11:08.643Z,69.24
2019-01-16T06:12:08.611Z,69.15
2019-01-16T06:13:08.578Z,67.25
2019-01-16T06:14:08.544Z,66.30
2019-01-16T06:15:08.512Z,66.58
2019-01-16T06:16:08.480Z,65.25
2019-01-16T06:17:08.445Z,65.35
2019-01-16T06:18:08.413Z,65.63
2019-01-16T06:19:08.382Z,63.92
2019-01-16T06:20:08.355Z,64.21
2019-01-16T06:21:08.316Z,64.11
2019-01-16T06:22:08.282Z,66.49
2019-01-16T06:23:08.249Z,65.63
2019-01-16T06:24:08.218Z,65.16
2019-01-16T06:25:08.184Z,65.35
2019-01-16T06:26:08.160Z,64.59
2019-01-16T06:27:08.120Z,66.67
2019-01-16T06:28:08.085Z,65.35
2019-01-16T06:29:08.052Z,65.25
2019-01-16T06:30:08.022Z,66.11
2019-01-16T06:31:07.985Z,67.15
2019-01-16T06:32:07.961Z,66.67
2019-01-16T06:33:07.922Z,67.82
2019-01-16T06:34:07.889Z,67.91
2019-01-16T06:35:07.859Z,67.72
2019-01-16T06:36:07.825Z,67.44
2019-01-16T06:37:07.790Z,68.86
2019-01-16T06:38:07.756Z,69.15
2019-01-16T06:39:07.725Z,71.33
2019-01-16T06:40:07.692Z,73.52
2019-01-16T06:41:07.657Z,72.56
2019-01-16T06:42:07.627Z,73.42
2019-01-16T06:43:07.591Z,72.75
2019-01-16T06:44:07.560Z,72.00
2019-01-16T06:45:07.527Z,73.99
2019-01-16T06:46:07.494Z,73.33
2019-01-16T06:47:07.463Z,77.31
2019-01-16T06:48:07.428Z,76.93
2019-01-16T06:49:07.394Z,76.75
2019-01-16T06:50:07.363Z,77.89
2019-01-16T06:51:07.329Z,77.51
2019-01-16T06:52:07.297Z,77.22
2019-01-16T06:53:07.263Z,77.89
2019-01-16T06:54:07.230Z,79.03
2019-01-16T06:55:07.199Z,80.26
2019-01-16T06:56:07.166Z,79.12
2019-01-16T06:57:07.133Z,81.40
2019-01-16T06:58:07.102Z,80.26
2019-01-16T06:59:07.066Z,81.87
2019-01-16T07:00:07.034Z,81.97
2019-01-16T07:01:07.004Z,81.59
2019-01-16T07:02:06.970Z,82.07
2019-01-16T07:03:06.940Z,81.78
2019-01-16T07:04:06.904Z,81.97
2019-01-16T07:05:06.871Z,81.40
2019-01-16T07:06:06.839Z,81.97
2019-01-16T07:07:06.805Z,80.26
2019-01-16T07:08:06.772Z,80.55
2019-01-16T07:09:06.741Z,79.88
2019-01-16T07:10:06.708Z,81.59
2019-01-16T07:11:06.673Z,80.93
2019-01-16T07:12:06.641Z,82.73
2019-01-16T07:13:06.607Z,81.59
2019-01-16T07:14:06.577Z,81.49
2019-01-16T07:15:06.542Z,79.69
2019-01-16T07:16:06.513Z,80.55
2019-01-16T07:17:06.477Z,81.49
2019-01-16T07:18:06.445Z,81.49
2019-01-16T07:19:06.412Z,80.83
2019-01-16T07:20:09.751Z,80.83
2019-01-16T07:21:06.346Z,81.12
2019-01-16T07:22:06.319Z,79.88
2019-01-16T07:23:06.331Z,80.35
2019-01-16T07:24:06.249Z,79.31
2019-01-16T07:25:06.215Z,78.93
2019-01-16T07:26:06.183Z,78.83
2019-01-16T07:27:06.150Z,76.27
2019-01-16T07:28:06.119Z,76.46
2019-01-16T07:29:06.087Z,75.32
2019-01-16T07:30:06.052Z,74.47
2019-01-16T07:31:06.023Z,74.47
2019-01-16T07:32:05.988Z,74.75
2019-01-16T07:33:05.954Z,74.37
2019-01-16T07:34:05.922Z,74.47
2019-01-16T07:35:05.890Z,73.90
2019-01-16T07:36:05.857Z,71.33
2019-01-16T07:37:05.823Z,71.90
2019-01-16T07:38:05.794Z,72.95
2019-01-16T07:39:05.760Z,71.43
2019-01-16T07:40:05.730Z,71.90
2019-01-16T07:41:05.693Z,73.23
2019-01-16T07:42:05.661Z,71.23
2019-01-16T07:43:05.630Z,70.86
2019-01-16T07:44:05.597Z,71.04
2019-01-16T07:45:05.564Z,70.95
2019-01-16T07:46:05.530Z,72.09
2019-01-16T07:47:05.497Z,71.90
2019-01-16T07:48:05.466Z,69.91
2019-01-16T07:49:05.432Z,70.29
2019-01-16T07:50:05.401Z,69.81
2019-01-16T07:51:05.367Z,69.53
2019-01-16T07:52:05.334Z,69.71
2019-01-16T07:53:05.301Z,69.43
2019-01-16T07:54:05.268Z,68.77
2019-01-16T07:55:05.239Z,68.48
2019-01-16T07:56:05.205Z,67.15
2019-01-16T07:57:05.174Z,66.96
2019-01-16T07:58:05.140Z,65.92
2019-01-16T07:59:05.106Z,65.73
2019-01-16T08:00:05.073Z,65.35
2019-01-16T08:01:05.040Z,65.35
2019-01-16T08:02:05.008Z,64.11
2019-01-16T08:03:04.975Z,63.45
2019-01-16T08:04:04.943Z,65.06
2019-01-16T08:05:04.911Z,67.15
2019-01-16T08:06:04.879Z,67.72
2019-01-16T08:07:04.845Z,67.72
2019-01-16T08:08:04.813Z,67.25
2019-01-16T08:09:04.779Z,65.73
2019-01-16T08:10:04.749Z,68.77
2019-01-16T08:11:04.714Z,69.15
2019-01-16T08:12:04.684Z,70.19
2019-01-16T08:13:04.650Z,70.19
2019-01-16T08:14:04.616Z,69.91
2019-01-16T08:15:04.584Z,69.91
2019-01-16T08:16:04.552Z,72.56
2019-01-16T08:17:04.518Z,73.33
2019-01-16T08:18:04.486Z,75.17
2019-01-16T08:19:04.454Z,76.37
2019-01-16T08:20:04.426Z,76.69
2019-01-16T08:21:04.388Z,77.17
2019-01-16T08:22:04.355Z,79.06
2019-01-16T08:23:04.323Z,77.36
2019-01-16T08:24:04.291Z,77.26
2019-01-16T08:25:04.407Z,78.78
2019-01-16T08:26:04.224Z,78.30
2019-01-16T08:27:04.192Z,77.92
2019-01-16T08:28:04.160Z,76.46
2019-01-16T08:29:04.128Z,78.02
2019-01-16T08:30:04.098Z,78.59
2019-01-16T08:31:04.066Z,79.06
2019-01-16T08:32:04.030Z,79.25
2019-01-16T08:33:03.997Z,79.44
2019-01-16T08:34:03.965Z,79.83
2019-01-16T08:35:03.933Z,82.58
2019-01-16T08:36:03.901Z,82.92
2019-01-16T08:37:03.867Z,82.20
2019-01-16T08:38:03.834Z,83.53
2019-01-16T08:39:03.803Z,84.10
2019-01-16T08:40:03.772Z,84.67
2019-01-16T08:41:03.737Z,84.29
2019-01-16T08:42:03.703Z,85.81
2019-01-16T08:43:03.674Z,85.15
2019-01-16T08:44:03.641Z,88.00
2019-01-16T08:45:03.606Z,88.09
2019-01-16T08:46:03.575Z,88.85
2019-01-16T08:47:03.544Z,88.38
2019-01-16T08:48:03.510Z,92.75
2019-01-16T08:49:03.487Z,90.56
2019-01-16T08:50:03.446Z,90.94
2019-01-16T08:51:03.414Z,89.14
2019-01-16T08:52:03.381Z,89.80
2019-01-16T08:53:03.349Z,91.61
2019-01-16T08:54:03.317Z,91.23
2019-01-16T08:55:03.284Z,93.60
2019-01-16T08:56:03.251Z,93.04
2019-01-16T08:57:03.218Z,93.51
2019-01-16T08:58:03.187Z,91.42
2019-01-16T08:59:03.153Z,95.12
2019-01-16T09:00:03.121Z,95.79
2019-01-16T09:01:03.089Z,94.74
2019-01-16T09:02:03.056Z,97.22
2019-01-16T09:03:03.024Z,94.37
2019-01-16T09:04:02.993Z,94.84
2019-01-16T09:05:02.959Z,96.08
2019-01-16T09:06:02.926Z,97.03
2019-01-16T09:07:02.894Z,97.41
2019-01-16T09:08:02.862Z,96.08
2019-01-16T09:09:02.831Z,96.17
2019-01-16T09:10:02.798Z,97.41
2019-01-16T09:11:02.766Z,96.74
2019-01-16T09:12:02.733Z,98.07
2019-01-16T09:13:02.700Z,97.78
2019-01-16T09:14:02.670Z,98.74
2019-01-16T09:15:02.636Z,98.26
2019-01-16T09:16:02.603Z,99.99
2019-01-16T09:17:02.572Z,99.99
2019-01-16T09:18:02.540Z,99.02
2019-01-16T09:19:02.508Z,99.99
2019-01-16T09:20:02.474Z,99.99
2019-01-16T09:21:02.440Z,99.99
2019-01-16T09:22:02.408Z,99.99
2019-01-16T09:23:02.378Z,99.99
2019-01-16T09:24:02.344Z,99.99
2019-01-16T09:25:02.312Z,99.99
2019-01-16T09:26:02.284Z,99.99
2019-01-16T09:27:02.248Z,99.99
2019-01-16T09:28:02.215Z,99.99
2019-01-16T09:29:02.185Z,99.99
2019-01-16T09:30:02.151Z,99.99
2019-01-16T09:31:02.119Z,99.99
2019-01-16T09:32:02.087Z,99.99
2019-01-16T09:33:02.054Z,99.99
2019-01-16T09:34:02.022Z,99.99
2019-01-16T09:35:01.991Z,99.99
2019-01-16T09:36:01.957Z,99.99
2019-01-16T09:37:01.924Z,99.99
2019-01-16T09:38:01.893Z,99.99
2019-01-16T09:39:01.860Z,99.99
2019-01-16T09:40:01.829Z,99.99
2019-01-16T09:41:01.795Z,99.99
2019-01-16T09:42:01.764Z,99.99
2019-01-16T09:43:01.734Z,99.99
2019-01-16T09:44:01.700Z,99.99
2019-01-16T09:45:01.668Z,99.99
2019-01-16T09:46:01.635Z,99.99
2019-01-16T09:47:01.603Z,99.99
2019-01-16T09:48:01.571Z,99.99
2019-01-16T09:49:01.539Z,99.99
2019-01-16T09:50:01.509Z,99.99
2019-01-16T09:51:01.475Z,99.99
2019-01-16T09:52:01.444Z,99.99
2019-01-16T09:53:01.412Z,99.99
2019-01-16T09:54:01.379Z,99.99
2019-01-16T09:55:01.350Z,99.99
2019-01-16T09:56:01.315Z,99.99
2019-01-16T09:57:01.284Z,99.99
2019-01-16T09:58:01.251Z,99.99
2019-01-16T09:59:01.219Z,99.99
2019-01-16T10:00:01.188Z,99.99
2019-01-16T10:01:01.155Z,99.99
2019-01-16T10:02:01.123Z,99.99
2019-01-16T10:03:01.091Z,99.99
2019-01-16T10:04:01.061Z,99.99
2019-01-16T10:05:01.028Z,99.99
2019-01-16T10:06:00.995Z,99.99
2019-01-16T10:07:00.986Z,99.99
2019-01-16T10:08:00.934Z,99.99
2019-01-16T10:09:00.898Z,99.99
2019-01-16T10:10:00.867Z,99.99
2019-01-16T10:11:00.834Z,99.99
2019-01-16T10:12:00.802Z,99.99
2019-01-16T10:13:00.772Z,99.99
2019-01-16T10:14:00.739Z,99.99
2019-01-16T10:15:00.707Z,99.99
2019-01-16T10:16:00.675Z,99.99
2019-01-16T10:17:00.642Z,99.99
2019-01-16T10:18:00.612Z,99.99
2019-01-16T10:19:00.579Z,99.99
2019-01-16T10:20:00.547Z,99.99
2019-01-16T10:21:00.513Z,99.99
2019-01-16T10:22:00.482Z,99.99
2019-01-16T10:23:00.450Z,99.99
2019-01-16T10:24:00.418Z,99.99
2019-01-16T10:25:00.405Z,99.99
2019-01-16T10:26:00.355Z,99.99
2019-01-16T10:27:00.326Z,99.99
2019-01-16T10:28:00.291Z,99.99
2019-01-16T10:29:00.260Z,99.99
2019-01-16T10:30:00.230Z,99.99
2019-01-16T10:31:00.198Z,99.99
2019-01-16T10:32:00.163Z,99.99
2019-01-16T10:33:00.129Z,99.99
2019-01-16T10:34:00.098Z,99.99
2019-01-16T10:35:00.573Z,99.99
2019-01-16T10:36:00.033Z,99.99
2019-01-16T10:37:00.001Z,99.99
2019-01-16T10:37:59.976Z,99.99
2019-01-16T10:38:59.938Z,99.99
2019-01-16T10:39:59.906Z,99.99
2019-01-16T10:40:59.873Z,99.99
2019-01-16T10:41:59.841Z,99.99
2019-01-16T10:42:59.810Z,99.99
2019-01-16T10:43:59.778Z,99.99
2019-01-16T10:44:59.746Z,99.99
2019-01-16T10:45:59.712Z,99.99
2019-01-16T10:46:59.680Z,99.99
2019-01-16T10:47:59.652Z,99.99
2019-01-16T10:48:59.618Z,99.99
2019-01-16T10:49:59.585Z,99.99
2019-01-16T10:51:03.340Z,99.99
2019-01-16T10:51:59.522Z,99.99
2019-01-16T10:52:59.489Z,99.99
2019-01-16T10:53:59.457Z,99.99
2019-01-16T10:54:59.425Z,99.99
2019-01-16T10:55:59.393Z,99.99
2019-01-16T10:56:59.361Z,99.99
2019-01-16T10:57:59.329Z,99.99
2019-01-16T10:58:59.299Z,99.99
2019-01-16T10:59:59.266Z,99.99
2019-01-16T11:00:59.234Z,99.99
2019-01-16T11:01:59.201Z,99.99
2019-01-16T11:02:59.169Z,99.99
2019-01-16T11:03:59.137Z,99.99
2019-01-16T11:04:59.109Z,99.99
2019-01-16T11:05:59.073Z,99.99
2019-01-16T11:06:59.042Z,99.99
2019-01-16T11:07:59.011Z,99.99
2019-01-16T11:08:58.978Z,99.99
2019-01-16T11:09:58.948Z,99.99
2019-01-16T11:10:58.917Z,99.99
2019-01-16T11:11:58.885Z,99.99
2019-01-16T11:12:58.849Z,99.99
2019-01-16T11:13:58.817Z,99.99
2019-01-16T11:14:58.786Z,99.99
2019-01-16T11:15:58.755Z,99.99
2019-01-16T11:16:58.722Z,99.99
2019-01-16T11:17:58.690Z,99.99
2019-01-16T11:18:58.659Z,99.99
2019-01-16T11:19:58.626Z,99.99
2019-01-16T11:20:58.597Z,99.99
2019-01-16T11:21:58.563Z,99.99
2019-01-16T11:22:58.531Z,99.99
2019-01-16T11:23:58.498Z,99.99
2019-01-16T11:24:58.466Z,99.99
2019-01-16T11:25:58.435Z,99.99
2019-01-16T11:26:58.402Z,99.99
2019-01-16T11:27:58.372Z,99.99
2019-01-16T11:28:58.337Z,99.99
2019-01-16T11:29:58.306Z,98.07
2019-01-16T11:30:58.273Z,99.99
2019-01-16T11:31:58.244Z,99.30
2019-01-16T11:32:58.208Z,99.78
2019-01-16T11:33:58.178Z,96.55
2019-01-16T11:34:58.146Z,93.79
2019-01-16T11:35:58.120Z,94.46
2019-01-16T11:36:58.080Z,92.85
2019-01-16T11:37:58.050Z,93.23
2019-01-16T11:38:58.017Z,92.66
2019-01-16T11:40:04.642Z,88.19
2019-01-16T11:40:57.951Z,86.76
2019-01-16T11:41:57.919Z,85.72
2019-01-16T11:42:57.890Z,83.34
2019-01-16T11:43:57.855Z,83.34
2019-01-16T11:44:57.824Z,81.92
2019-01-16T11:45:57.790Z,80.02
2019-01-16T11:46:57.761Z,79.73
2019-01-16T11:47:59.167Z,80.40
2019-01-16T11:48:57.698Z,80.96
2019-01-16T11:49:57.662Z,79.73
2019-01-16T11:50:57.634Z,78.30
2019-01-16T11:51:57.597Z,78.21
2019-01-16T11:52:57.564Z,76.21
2019-01-16T11:53:57.533Z,74.51
2019-01-16T11:54:57.502Z,75.17
2019-01-16T11:55:57.489Z,73.55
2019-01-16T11:56:57.435Z,76.97
2019-01-16T11:57:57.407Z,73.08
2019-01-16T11:58:57.370Z,74.22
2019-01-16T11:59:57.337Z,71.66
2019-01-16T12:00:57.304Z,69.18
2019-01-16T12:01:57.273Z,70.70
2019-01-16T12:02:57.241Z,72.41
2019-01-16T12:03:57.209Z,71.75
2019-01-16T12:04:57.178Z,71.94
2019-01-16T12:05:57.145Z,72.51
2019-01-16T12:06:57.262Z,71.94
2019-01-16T12:07:57.080Z,71.94
2019-01-16T12:08:57.045Z,71.94
2019-01-16T12:09:57.013Z,71.56
2019-01-16T12:10:56.982Z,75.55
2019-01-16T12:11:56.949Z,74.41
2019-01-16T12:12:56.917Z,74.41
2019-01-16T12:13:56.885Z,77.92
2019-01-16T12:14:56.852Z,76.21
2019-01-16T12:15:56.819Z,75.26
2019-01-16T12:16:56.789Z,78.40
2019-01-16T12:17:56.756Z,77.26
2019-01-16T12:18:56.722Z,78.50
2019-01-16T12:19:56.689Z,79.73
2019-01-16T12:20:56.658Z,81.73
2019-01-16T12:21:56.625Z,81.73
2019-01-16T12:22:56.592Z,83.91
2019-01-16T12:23:56.562Z,85.24
2019-01-16T12:24:56.529Z,85.62
2019-01-16T12:25:56.496Z,84.20
2019-01-16T12:26:56.464Z,84.95
2019-01-16T12:27:56.432Z,88.95
2019-01-16T12:28:56.402Z,87.34
2019-01-16T12:29:56.367Z,88.00
2019-01-16T12:30:56.334Z,87.52
2019-01-16T12:31:56.303Z,87.52
2019-01-16T12:32:56.269Z,86.67
2019-01-16T12:33:56.238Z,90.56
2019-01-16T12:34:56.207Z,89.61
2019-01-16T12:35:56.174Z,90.66
2019-01-16T12:36:56.140Z,89.80
2019-01-16T12:37:56.110Z,89.33
2019-01-16T12:38:56.075Z,90.00
2019-01-16T12:39:56.045Z,89.71
2019-01-16T12:40:56.011Z,89.33
2019-01-16T12:41:59.701Z,88.95
2019-01-16T12:42:55.947Z,89.71
2019-01-16T12:43:55.917Z,89.04
2019-01-16T12:44:55.881Z,86.19
2019-01-16T12:45:55.849Z,86.67
2019-01-16T12:46:55.818Z,86.38
2019-01-16T12:47:55.785Z,86.67
2019-01-16T12:48:55.753Z,85.62
2019-01-16T12:49:55.720Z,86.29
2019-01-16T12:50:55.689Z,85.15
2019-01-16T12:51:55.655Z,88.09